« Back
NWS Peachtree City, Ga » Text Product » CSG Terminal Aerodrome Forecast


Printer-friendly Version
Current Version              Previous Versions:   1  2  3  4  5  6  7  8  9  

Terminal Aerodrome Forecast

659
FTUS42 KFFC 020933 AAA
TAFCSG
TAF AMD
KCSG 020933Z 0210/0306 00000KT 3SM -DZ BR OVC004
      TEMPO 0210/0214 1SM -DZ BR OVC002
     FM021500 24005KT 4SM -DZ OVC007
     FM022000 31004KT P6SM OVC012
     FM022300 01003KT P6SM OVC015
     FM030400 05003KT P6SM OVC012=



USA.gov is the U.S. government's official web portal to all federal, state and local government web resources and services.